Astoria Regional Airport
KAST : now visible

Airfield :











YOU CAN JOIN US ON...

 
LOGIN :

Register | Disclaimer

   EN    FR    IT 

 









Legend :    VFR   Marginal VFR   IFR   Intensive IFR   Very Intensive IFR
Visi :
Ceiling :
>= 8 km
>= 3000ft
5 to 8 km
1000 to 3000 ft
1500m to 5 km
500 to 1000 ft
800 to 1500m
200 to 500 ft
< 800m
< 200 ft
Symbols :   Thunderstorms  Fog  Heavy snow  Heavy precipitations  Wind > 20 kt






- Airport Elevation : 15 ft


KAST - Astoria Regional

CURRENT METAR :
  • 260828Z AUTO 19017G28KT 5SM -RA BR BKN015 OVC023 11/10 A2972 RMK AO2 PK WND 17028/0823 P0015 T01110100

EXPIRED METARs :
  • 260814Z AUTO 16008KT 2SM +RA BR SCT019 BKN026 OVC031 10/09 A2971 RMK AO2 PRESRR P0008 T01000089
  • 260755Z AUTO 13010KT 4SM RA BR BKN030 OVC035 10/08 A2969 RMK AO2 SLP054 P0008 T01000083 401110089
  • 260655Z AUTO VRB06G15KT 9SM -RA OVC042 11/08 A2971 RMK AO2 SLP060 P0003 T01060078
  • 260555Z AUTO 13008G17KT 10SM -RA OVC050 11/07 A2974 RMK AO2 SLP070 P0003 60003 T01110072 10111 20094 56034

TAF KAST
Valid from the 26 at 07:00 until the 27 at 06:00 UTC


260703Z 2607/2706 12006G15KT P6SM -RA OVC040
FM260730 18013G21KT P6SM -RA OVC025
TEMPO 2608/2610 4SM RA BR OVC015
FM261100 22010G17KT P6SM VCSH BKN025 OVC050
FM270000 20015G22KT P6SM -SHRA OVC050
FM270400 21015G22KT P6SM -RA OVC025



MET'MAP, your aeronautical weather chart ! - Copyright ORBIFLY December 2007 - Disclaimer

ORBIFLY MET'MAP TEAM :

Programming & Development : Alexandra Zaïnal
Concept & original design : Baudouin d'Aumeries
Assistance for programming : Marc-Olivier Méhu
Technical & hardware support : Manuel Goepfert

Contact : metmap@orbifly.com




SOURCES & CREDITS :

   NOAA       Earth
Advisory